createdAt,value
2017-09-20T09:18:05.524Z,24.07
2017-09-20T09:21:07.885Z,24.00
2017-09-20T09:24:09.557Z,21.60
2017-09-20T09:27:12.144Z,19.50
2017-09-20T09:30:13.985Z,20.33
2017-09-20T09:33:15.479Z,21.40
2017-09-20T09:36:17.193Z,18.40
2017-09-20T09:39:19.789Z,19.67
2017-09-20T09:42:25.997Z,20.20
2017-09-20T09:48:36.656Z,21.53
2017-09-20T09:51:39.788Z,21.37
2017-09-20T09:54:41.516Z,22.97
2017-09-20T09:57:43.187Z,23.90
2017-09-20T10:00:44.699Z,26.63
2017-09-20T10:03:47.032Z,27.57
2017-09-20T10:06:48.520Z,27.10
2017-09-20T10:09:50.080Z,28.10
2017-09-20T10:12:51.540Z,28.57
2017-09-20T10:15:53.059Z,28.83
2017-09-20T10:18:55.858Z,26.07
2017-09-20T10:21:57.372Z,28.67
2017-09-20T10:24:58.996Z,27.87
2017-09-20T10:28:01.420Z,25.90
2017-09-20T10:31:03.828Z,25.03
2017-09-20T10:34:05.326Z,25.27
2017-09-20T10:37:06.947Z,25.20
2017-09-20T10:40:09.115Z,26.27
2017-09-20T10:43:10.725Z,23.77
2017-09-20T10:46:12.980Z,21.43
2017-09-20T10:49:14.438Z,21.53
2017-09-20T10:52:16.776Z,21.07
2017-09-20T10:55:18.320Z,23.13
2017-09-20T10:58:19.808Z,23.33
2017-09-20T11:01:21.259Z,22.30
2017-09-20T11:04:22.788Z,20.77
2017-09-20T11:07:24.312Z,20.30
2017-09-20T11:10:25.905Z,19.87
2017-09-20T11:13:27.434Z,17.93
2017-09-20T11:16:28.999Z,18.30
2017-09-20T11:19:30.584Z,17.20
2017-09-20T11:22:32.124Z,17.00
2017-09-20T11:25:33.714Z,18.80
2017-09-20T11:28:35.960Z,15.93
2017-09-20T11:31:37.556Z,13.27
2017-09-20T11:34:39.116Z,14.40
2017-09-20T11:37:40.641Z,16.40
2017-09-20T11:40:43.049Z,15.20
2017-09-20T11:43:44.666Z,13.60
2017-09-20T11:46:46.211Z,15.10
2017-09-20T11:49:47.715Z,14.30
2017-09-20T11:52:49.268Z,14.03
2017-09-20T11:55:50.766Z,12.97
2017-09-20T11:58:52.312Z,14.20
2017-09-20T12:01:53.842Z,14.70
2017-09-20T12:04:55.341Z,14.93
2017-09-20T12:07:56.869Z,12.83
2017-09-20T12:14:06.508Z,12.80
2017-09-20T12:17:07.942Z,10.00
2017-09-20T12:20:10.189Z,10.60
2017-09-20T12:23:11.655Z,10.57
2017-09-20T12:26:13.908Z,8.50
2017-09-20T12:29:15.429Z,8.50
2017-09-20T12:32:16.976Z,7.10
2017-09-20T12:35:18.472Z,7.37
2017-09-20T12:38:19.976Z,7.77
2017-09-20T12:41:21.493Z,6.00
2017-09-20T12:44:23.020Z,6.37
2017-09-20T12:47:24.579Z,11.07
2017-09-20T12:50:26.483Z,36.97
2017-09-20T12:53:28.111Z,6.73
2017-09-20T12:56:29.806Z,6.77
2017-09-20T12:59:31.288Z,6.30
2017-09-20T13:02:33.484Z,5.50
2017-09-20T13:05:35.719Z,5.10
2017-09-20T13:08:37.279Z,5.20
2017-09-20T13:11:39.608Z,4.87
2017-09-20T13:14:41.994Z,4.17
2017-09-20T13:17:43.507Z,3.93
2017-09-20T13:20:49.141Z,3.80
2017-09-20T13:23:50.612Z,4.10
2017-09-20T13:26:52.045Z,3.43
2017-09-20T13:29:54.368Z,3.97
2017-09-20T13:32:57.532Z,4.00
2017-09-20T13:36:00.685Z,3.50
2017-09-20T13:39:02.250Z,3.87
2017-09-20T13:42:03.723Z,3.57
2017-09-20T13:45:06.019Z,3.40
2017-09-20T13:48:07.515Z,3.47
2017-09-20T13:51:09.011Z,3.53
2017-09-20T13:54:10.536Z,2.80
2017-09-20T13:57:12.065Z,3.20
2017-09-20T14:00:13.601Z,2.90
2017-09-20T14:03:15.129Z,2.53
2017-09-20T14:06:17.473Z,3.13
2017-09-20T14:09:19.759Z,3.20
2017-09-20T14:12:21.297Z,3.40
2017-09-20T14:15:22.800Z,3.60
2017-09-20T14:18:24.356Z,3.33
2017-09-20T14:21:25.893Z,4.10
2017-09-20T14:24:28.139Z,5.10
2017-09-20T14:27:30.388Z,5.13
2017-09-20T14:30:31.916Z,3.87
2017-09-20T14:36:46.699Z,6.23
2017-09-20T14:39:48.306Z,4.63
2017-09-20T14:42:50.574Z,4.30
2017-09-20T14:45:52.897Z,5.27
2017-09-20T14:48:54.422Z,4.93
2017-09-20T14:51:56.708Z,4.27
2017-09-20T14:54:58.251Z,4.37
2017-09-20T14:57:59.938Z,4.40
2017-09-20T15:04:09.680Z,4.50
2017-09-20T15:07:11.200Z,4.43
2017-09-20T15:10:12.738Z,4.70
2017-09-20T15:13:14.423Z,3.87
2017-09-20T15:16:16.713Z,4.47
2017-09-20T15:19:19.007Z,5.67
2017-09-20T15:22:20.538Z,5.13
2017-09-20T15:25:22.832Z,4.17
2017-09-20T15:28:24.328Z,4.10
2017-09-20T15:31:25.880Z,4.90
2017-09-20T15:34:27.530Z,5.00
2017-09-20T15:46:12.548Z,4.50
2017-09-20T15:49:14.075Z,6.37
2017-09-20T15:52:15.687Z,5.23
2017-09-20T15:55:17.196Z,4.40
2017-09-20T15:58:18.754Z,4.33
2017-09-20T16:01:20.289Z,4.37
2017-09-20T16:04:21.883Z,3.57
2017-09-20T16:07:24.256Z,3.00
2017-09-20T16:10:25.849Z,3.53
2017-09-20T16:13:27.406Z,4.63
2017-09-20T17:57:54.042Z,2.40
2017-09-20T18:00:56.342Z,2.77
2017-09-20T18:03:58.599Z,2.90
2017-09-20T18:10:08.633Z,3.43
2017-09-20T18:13:10.918Z,2.83
2017-09-20T18:16:16.179Z,3.77
2017-09-20T18:19:18.621Z,3.40
2017-09-20T18:22:20.283Z,2.77
2017-09-20T18:25:27.224Z,6.53
2017-09-20T18:28:29.655Z,4.10
2017-09-20T18:31:32.089Z,2.90
2017-09-20T18:34:33.798Z,2.73
2017-09-20T18:37:36.029Z,3.60
2017-09-20T18:40:37.606Z,3.30
2017-09-20T18:43:39.504Z,3.57
2017-09-20T19:54:39.023Z,3.93
2017-09-20T19:57:44.279Z,4.90
2017-09-20T20:07:53.311Z,5.47
2017-09-20T20:10:54.767Z,3.97
2017-09-20T20:13:56.208Z,4.30
2017-09-20T20:16:57.678Z,3.77
2017-09-20T20:19:59.139Z,5.13
2017-09-20T20:23:00.564Z,4.10
2017-09-20T20:26:02.075Z,4.67
2017-09-20T20:29:03.691Z,4.27
2017-09-20T20:32:05.053Z,4.50
2017-09-20T20:35:06.498Z,5.27
2017-09-20T20:38:07.940Z,5.00
2017-09-20T20:41:09.481Z,5.60
2017-09-20T20:44:10.941Z,4.73
2017-09-20T20:47:12.435Z,5.40
2017-09-20T20:50:14.686Z,4.40
2017-09-20T20:53:16.237Z,5.70
2017-09-20T20:56:17.768Z,5.27
2017-09-20T20:59:19.300Z,5.03
2017-09-20T21:02:20.972Z,4.93
2017-09-20T21:05:22.484Z,5.30
2017-09-20T21:08:24.038Z,4.70
2017-09-20T21:11:25.664Z,5.43
2017-09-20T21:14:27.166Z,5.40
2017-09-20T21:17:28.731Z,5.60
2017-09-20T21:20:30.210Z,5.20
2017-09-20T21:23:31.939Z,5.03
2017-09-20T21:26:33.484Z,5.73
2017-09-20T21:29:35.085Z,6.23
2017-09-20T21:32:36.654Z,5.93
2017-09-20T21:35:38.307Z,5.27
2017-09-20T21:38:39.828Z,6.07
2017-09-20T21:41:41.396Z,5.50
2017-09-20T21:44:43.605Z,5.77
2017-09-20T21:47:45.103Z,6.10
2017-09-20T21:50:46.652Z,4.80
2017-09-20T21:53:48.172Z,5.70
2017-09-20T21:56:49.675Z,5.97
2017-09-20T21:59:51.200Z,5.93
2017-09-20T22:02:52.812Z,6.00
2017-09-20T22:05:54.330Z,7.63
2017-09-20T22:08:55.853Z,5.67
2017-09-20T22:11:58.060Z,4.77
2017-09-20T22:15:17.906Z,5.00
2017-09-20T22:18:37.911Z,5.67
2017-09-20T22:21:57.898Z,5.97
2017-09-20T22:25:17.789Z,6.87
2017-09-20T22:28:19.417Z,5.80
2017-09-20T22:31:21.158Z,5.90
2017-09-20T22:34:22.646Z,7.03
2017-09-20T22:37:24.236Z,5.93
2017-09-20T22:40:25.768Z,6.63
2017-09-20T22:43:27.244Z,6.60
2017-09-20T22:46:29.459Z,6.17
2017-09-20T22:49:30.985Z,5.87
2017-09-20T22:52:32.691Z,5.90
2017-09-20T22:55:34.906Z,5.60
2017-09-20T22:58:36.496Z,6.60
2017-09-20T23:01:38.060Z,6.37
2017-09-20T23:04:40.320Z,6.40
2017-09-20T23:07:41.885Z,6.67
2017-09-20T23:10:43.433Z,6.57
2017-09-20T23:13:45.037Z,6.70
2017-09-20T23:16:47.298Z,6.43
2017-09-20T23:19:48.743Z,6.80
2017-09-20T23:22:50.257Z,6.87
2017-09-20T23:25:51.765Z,7.00
2017-09-20T23:28:53.238Z,6.57
2017-09-20T23:31:55.532Z,6.83
2017-09-20T23:34:56.988Z,6.87
2017-09-20T23:37:58.450Z,7.30
2017-09-20T23:40:59.907Z,8.00
2017-09-20T23:44:01.339Z,6.77
2017-09-20T23:47:02.811Z,7.50
2017-09-20T23:50:04.288Z,7.17
2017-09-20T23:53:05.693Z,7.97
2017-09-20T23:56:07.197Z,6.37
2017-09-20T23:59:08.701Z,8.00
